Flight Briefing for CPX412

Departure Arrival
Washington Dulles International Airport (KIAD)
Click to view FAA NOTAMS
Miami International Airport (KMIA)
Click to view FAA NOTAMS
Departure Time Arrival Time
N/A N/A
Aircraft Distance
B757-200SF 894nm
Departure METAR Arrival METAR
KIAD 180552Z 18012KT 10SM -RA BKN007 OVC050 02/01 A2983 RMK AO2 SLP101 RAE02B24 PRESFR P0001 60024 T00220011 10022 20011 58037 KMIA 180553Z 14006KT 10SM FEW030 SCT050 SCT065 24/24 A3004 RMK AO2 SLP173 T02440239 10250 20239 58002
Suggested Route
JDUBB2 GSO J75 CAE J51 SAV J103 OMN HILEY7


View recent IFR Routes data
Notes



Charts and Procedures

Charts for KIAD
No chart available
Charts for KMIA
No chart available

Ventusky Weather